Time;durP1;ratioP1;P1;durP2;ratioP2;P2;SDS_P1;SDS_P2;PMS_P1;PMS_P2;Temp;Humidity;BMP_temperature;BMP_pressure;BME280_temperature;BME280_humidity;BME280_pressure;Samples;Min_cycle;Max_cycle;Signal;HPM_P1;HPM_P2
2022/12/22 03:25:53;;;;;;;0.00;0.00;;;;;;;;;;1739271;28;20210;-74
2022/12/22 03:26:44;;;;;;;0.00;0.00;;;;;;;;;;1738847;28;20577;-75
2022/12/22 03:27:36;;;;;;;0.00;0.00;;;;;;;;;;1739315;28;20244;-75
2022/12/22 03:28:28;;;;;;;0.00;0.00;;;;;;;;;;1738494;28;20195;-75
2022/12/22 03:29:20;;;;;;;0.00;0.00;;;;;;;;;;1739128;28;20211;-75
2022/12/22 03:30:11;;;;;;;0.00;0.00;;;;;;;;;;1739334;28;20729;-75
2022/12/22 03:31:05;;;;;;;0.00;0.00;;;;;;;;;;1739511;28;20210;-73
2022/12/22 03:31:56;;;;;;;0.00;0.00;;;;;;;;;;1738744;28;20215;-73
2022/12/22 03:32:47;;;;;;;0.00;0.00;;;;;;;;;;1739330;28;20207;-73
2022/12/22 03:33:39;;;;;;;0.00;0.00;;;;;;;;;;1738559;28;20300;-74
2022/12/22 03:34:30;;;;;;;0.00;0.00;;;;;;;;;;1738974;28;20267;-73
2022/12/22 03:35:22;;;;;;;0.00;0.00;;;;;;;;;;1739094;28;20692;-74
2022/12/22 03:36:13;;;;;;;0.00;0.00;;;;;;;;;;1739304;28;20598;-73
2022/12/22 03:37:05;;;;;;;0.00;0.00;;;;;;;;;;1738982;28;20221;-73
2022/12/22 03:37:56;;;;;;;0.00;0.00;;;;;;;;;;1739209;28;20724;-73
2022/12/22 03:38:48;;;;;;;0.00;0.00;;;;;;;;;;1738678;28;20734;-73
2022/12/22 03:39:39;;;;;;;0.00;0.00;;;;;;;;;;1737985;28;20344;-73
2022/12/22 03:40:31;;;;;;;0.00;0.00;;;;;;;;;;1739315;28;20241;-73
2022/12/22 03:46:30;;;;;;;0.00;0.00;;;;;;;;;;1712645;28;20185;-73
2022/12/22 03:47:21;;;;;;;0.00;0.00;;;;;;;;;;1717098;28;20240;-73
2022/12/22 03:48:13;;;;;;;0.00;0.00;;;;;;;;;;1717627;28;20263;-73
2022/12/22 03:49:10;;;;;;;0.00;0.00;;;;;;;;;;1718170;28;20665;-73
2022/12/22 03:50:03;;;;;;;0.00;0.00;;;;;;;;;;1728316;28;20677;-73
2022/12/22 03:50:54;;;;;;;0.00;0.00;;;;;;;;;;1738650;28;20440;-73
2022/12/22 03:51:47;;;;;;;0.00;0.00;;;;;;;;;;1738580;28;20269;-74
2022/12/22 03:52:38;;;;;;;0.00;0.00;;;;;;;;;;1738573;28;20290;-74
2022/12/22 03:53:30;;;;;;;0.00;0.00;;;;;;;;;;1738724;28;20210;-73
2022/12/22 03:54:22;;;;;;;0.00;0.00;;;;;;;;;;1739165;28;20207;-73
2022/12/22 03:55:14;;;;;;;0.00;0.00;;;;;;;;;;1738958;28;20203;-73
2022/12/22 03:56:05;;;;;;;0.00;0.00;;;;;;;;;;1739477;28;20211;-73
2022/12/22 03:56:57;;;;;;;0.00;0.00;;;;;;;;;;1738552;28;20225;-74
2022/12/22 03:57:48;;;;;;;0.00;0.00;;;;;;;;;;1739275;28;20211;-73
2022/12/22 03:58:39;;;;;;;0.00;0.00;;;;;;;;;;1738334;28;20238;-73
2022/12/22 03:59:33;;;;;;;0.00;0.00;;;;;;;;;;1739178;28;20644;-73
2022/12/22 04:00:24;;;;;;;0.00;0.00;;;;;;;;;;1739269;28;20255;-73
2022/12/22 04:01:16;;;;;;;0.00;0.00;;;;;;;;;;1739075;28;20210;-73
2022/12/22 04:02:07;;;;;;;0.00;0.00;;;;;;;;;;1739111;28;20207;-73
2022/12/22 04:02:59;;;;;;;0.00;0.00;;;;;;;;;;1738867;28;20207;-73
2022/12/22 04:03:50;;;;;;;0.00;0.00;;;;;;;;;;1738928;28;20215;-73
2022/12/22 04:04:42;;;;;;;0.00;0.00;;;;;;;;;;1739105;28;20612;-74
2022/12/22 04:05:33;;;;;;;0.00;0.00;;;;;;;;;;1739026;28;20276;-73
2022/12/22 04:06:25;;;;;;;0.00;0.00;;;;;;;;;;1739145;28;20202;-75
2022/12/22 04:07:16;;;;;;;0.00;0.00;;;;;;;;;;1738810;28;20215;-75
2022/12/22 04:08:08;;;;;;;0.00;0.00;;;;;;;;;;1739009;28;20260;-75
2022/12/22 04:08:59;;;;;;;0.00;0.00;;;;;;;;;;1735546;28;20207;-75
2022/12/22 04:13:19;;;;;;;0.00;0.00;;;;;;;;;;1738796;28;20418;-74
2022/12/22 04:14:10;;;;;;;0.00;0.00;;;;;;;;;;1739115;28;20211;-73
2022/12/22 04:15:07;;;;;;;0.00;0.00;;;;;;;;;;1739144;28;20206;-73
2022/12/22 04:15:58;;;;;;;0.00;0.00;;;;;;;;;;1738995;28;20637;-74
2022/12/22 04:16:50;;;;;;;0.00;0.00;;;;;;;;;;1738816;28;20621;-74
2022/12/22 04:17:41;;;;;;;0.00;0.00;;;;;;;;;;1739014;28;20790;-74
2022/12/22 04:18:33;;;;;;;0.00;0.00;;;;;;;;;;1738671;28;20735;-74
2022/12/22 04:19:24;;;;;;;0.00;0.00;;;;;;;;;;1739102;28;20253;-74
2022/12/22 04:20:15;;;;;;;0.00;0.00;;;;;;;;;;1738859;28;20207;-74
2022/12/22 04:21:07;;;;;;;0.00;0.00;;;;;;;;;;1739670;28;20214;-74
2022/12/22 04:21:59;;;;;;;0.00;0.00;;;;;;;;;;1735815;28;20203;-74
2022/12/22 04:22:51;;;;;;;0.00;0.00;;;;;;;;;;1739318;28;20214;-75
2022/12/22 04:23:42;;;;;;;0.00;0.00;;;;;;;;;;1738320;28;20288;-75
2022/12/22 04:24:34;;;;;;;0.00;0.00;;;;;;;;;;1739050;28;20203;-75
2022/12/22 04:25:25;;;;;;;0.00;0.00;;;;;;;;;;1738963;28;20203;-75
2022/12/22 04:26:17;;;;;;;0.00;0.00;;;;;;;;;;1739101;28;20596;-73
2022/12/22 04:27:09;;;;;;;0.00;0.00;;;;;;;;;;1739118;28;20629;-73
2022/12/22 04:28:00;;;;;;;0.00;0.00;;;;;;;;;;1739196;28;20525;-73
2022/12/22 04:28:52;;;;;;;0.00;0.00;;;;;;;;;;1738584;28;20370;-73
2022/12/22 04:29:44;;;;;;;0.00;0.00;;;;;;;;;;1739440;28;20199;-73
2022/12/22 04:30:37;;;;;;;0.00;0.00;;;;;;;;;;1737301;28;20337;-73
2022/12/22 04:31:28;;;;;;;0.00;0.00;;;;;;;;;;1739964;28;20203;-73
2022/12/22 04:32:19;;;;;;;0.00;0.00;;;;;;;;;;1736590;28;20211;-74
2022/12/22 04:33:11;;;;;;;0.00;0.00;;;;;;;;;;1739978;28;20203;-73
2022/12/22 04:34:03;;;;;;;0.00;0.00;;;;;;;;;;1740714;28;20264;-73
2022/12/22 04:34:55;;;;;;;0.00;0.00;;;;;;;;;;1739512;28;20243;-73
2022/12/22 04:35:46;;;;;;;0.00;0.00;;;;;;;;;;1740720;28;20637;-73
2022/12/22 04:36:38;;;;;;;0.00;0.00;;;;;;;;;;1739931;28;20600;-73
2022/12/22 04:37:29;;;;;;;0.00;0.00;;;;;;;;;;1738069;28;20214;-73
2022/12/22 04:38:21;;;;;;;0.00;0.00;;;;;;;;;;1739702;28;20453;-73
2022/12/22 04:39:12;;;;;;;0.00;0.00;;;;;;;;;;1740281;28;20275;-73
2022/12/22 04:40:07;;;;;;;0.00;0.00;;;;;;;;;;1740584;28;20211;-73
2022/12/22 04:40:58;;;;;;;0.00;0.00;;;;;;;;;;1740231;28;20268;-74
2022/12/22 04:41:50;;;;;;;0.00;0.00;;;;;;;;;;1739824;28;20218;-74
2022/12/22 04:42:41;;;;;;;0.00;0.00;;;;;;;;;;1740130;28;20729;-75
2022/12/22 04:43:32;;;;;;;0.00;0.00;;;;;;;;;;1738196;28;20602;-74
2022/12/22 04:44:24;;;;;;;0.00;0.00;;;;;;;;;;1740223;28;20191;-75
2022/12/22 04:45:15;;;;;;;0.00;0.00;;;;;;;;;;1739842;28;20210;-74
2022/12/22 04:46:08;;;;;;;0.00;0.00;;;;;;;;;;1740428;28;20207;-75
2022/12/22 04:46:59;;;;;;;0.00;0.00;;;;;;;;;;1733647;28;20544;-75
2022/12/22 04:47:51;;;;;;;0.00;0.00;;;;;;;;;;1740373;28;20430;-75
2022/12/22 04:48:42;;;;;;;0.00;0.00;;;;;;;;;;1739789;28;20625;-75
2022/12/22 04:49:34;;;;;;;0.00;0.00;;;;;;;;;;1740306;28;20499;-75
2022/12/22 04:50:25;;;;;;;0.00;0.00;;;;;;;;;;1740229;28;20259;-74
2022/12/22 04:51:17;;;;;;;0.00;0.00;;;;;;;;;;1740187;28;20199;-73
2022/12/22 04:52:08;;;;;;;0.00;0.00;;;;;;;;;;1740304;28;20280;-73
2022/12/22 04:53:00;;;;;;;0.00;0.00;;;;;;;;;;1733298;28;20214;-73
2022/12/22 04:53:51;;;;;;;0.00;0.00;;;;;;;;;;1738945;28;20690;-73
2022/12/22 04:54:43;;;;;;;0.00;0.00;;;;;;;;;;1740176;28;20634;-74
2022/12/22 04:55:34;;;;;;;0.00;0.00;;;;;;;;;;1736529;28;20219;-74
2022/12/22 04:56:26;;;;;;;0.00;0.00;;;;;;;;;;1740137;28;20528;-74
2022/12/22 04:57:17;;;;;;;0.00;0.00;;;;;;;;;;1739820;28;20324;-74
2022/12/22 04:58:09;;;;;;;0.00;0.00;;;;;;;;;;1740207;28;20214;-74
2022/12/22 04:59:00;;;;;;;0.00;0.00;;;;;;;;;;1739600;28;20233;-74
2022/12/22 04:59:52;;;;;;;0.00;0.00;;;;;;;;;;1739492;28;20245;-75
2022/12/22 05:00:43;;;;;;;0.00;0.00;;;;;;;;;;1737833;28;20303;-74
2022/12/22 05:01:37;;;;;;;0.00;0.00;;;;;;;;;;1737707;28;20222;-74
2022/12/22 05:02:28;;;;;;;0.00;0.00;;;;;;;;;;1741015;28;20203;-74
2022/12/22 05:03:20;;;;;;;0.00;0.00;;;;;;;;;;1739392;28;20246;-74
2022/12/22 05:04:11;;;;;;;0.00;0.00;;;;;;;;;;1740841;28;20293;-74
2022/12/22 05:05:06;;;;;;;0.00;0.00;;;;;;;;;;1737747;28;20216;-73
2022/12/22 05:05:57;;;;;;;0.10;0.10;;;;;;;;;;1740359;28;20207;-74
2022/12/22 05:06:48;;;;;;;0.00;0.00;;;;;;;;;;1739689;28;20207;-74
2022/12/22 05:07:40;;;;;;;0.00;0.00;;;;;;;;;;1739943;28;20261;-74
2022/12/22 05:08:31;;;;;;;0.00;0.00;;;;;;;;;;1739576;28;20260;-74
2022/12/22 05:09:23;;;;;;;0.00;0.00;;;;;;;;;;1740217;28;20286;-75
2022/12/22 05:10:14;;;;;;;0.00;0.00;;;;;;;;;;1739953;28;20199;-74
2022/12/22 05:11:06;;;;;;;0.00;0.00;;;;;;;;;;1740752;28;20203;-75
2022/12/22 05:11:57;;;;;;;0.00;0.00;;;;;;;;;;1739372;28;20226;-74
2022/12/22 05:12:54;;;;;;;0.00;0.00;;;;;;;;;;1740117;28;20241;-74
2022/12/22 05:13:46;;;;;;;0.00;0.00;;;;;;;;;;1739581;28;20596;-74
2022/12/22 05:14:37;;;;;;;0.00;0.00;;;;;;;;;;1740141;28;20303;-74
2022/12/22 05:15:31;;;;;;;0.00;0.00;;;;;;;;;;1740007;28;20207;-74
2022/12/22 05:16:22;;;;;;;0.00;0.00;;;;;;;;;;1739772;28;20636;-74
2022/12/22 05:17:15;;;;;;;0.00;0.00;;;;;;;;;;1739728;28;20245;-74
2022/12/22 05:18:06;;;;;;;0.00;0.00;;;;;;;;;;1740006;28;20700;-74
2022/12/22 05:18:58;;;;;;;0.00;0.00;;;;;;;;;;1739727;28;20231;-75
2022/12/22 05:19:49;;;;;;;0.00;0.00;;;;;;;;;;1739794;28;20586;-74
2022/12/22 05:20:41;;;;;;;0.00;0.00;;;;;;;;;;1740299;28;20206;-75
2022/12/22 05:21:32;;;;;;;0.00;0.00;;;;;;;;;;1739646;28;20268;-74
2022/12/22 05:22:24;;;;;;;0.00;0.00;;;;;;;;;;1737065;28;20207;-74
2022/12/22 05:23:15;;;;;;;0.00;0.00;;;;;;;;;;1739553;28;20210;-75
2022/12/22 05:24:07;;;;;;;0.00;0.00;;;;;;;;;;1740152;28;20210;-75
2022/12/22 05:24:58;;;;;;;0.00;0.00;;;;;;;;;;1739387;28;20645;-75
2022/12/22 05:25:50;;;;;;;0.00;0.00;;;;;;;;;;1740396;28;20611;-74
2022/12/22 05:26:41;;;;;;;0.00;0.00;;;;;;;;;;1739410;28;20218;-74
2022/12/22 05:27:33;;;;;;;0.00;0.00;;;;;;;;;;1740201;28;20210;-74
2022/12/22 05:28:24;;;;;;;0.00;0.00;;;;;;;;;;1739040;28;20345;-73
2022/12/22 05:29:16;;;;;;;0.00;0.00;;;;;;;;;;1740166;28;20482;-73
2022/12/22 05:30:08;;;;;;;0.00;0.00;;;;;;;;;;1740356;28;20272;-73
2022/12/22 05:31:03;;;;;;;0.00;0.00;;;;;;;;;;1739957;28;20607;-73
2022/12/22 05:31:54;;;;;;;0.00;0.00;;;;;;;;;;1739567;28;20294;-73
2022/12/22 05:32:48;;;;;;;0.00;0.00;;;;;;;;;;1739689;28;20195;-74
2022/12/22 05:33:39;;;;;;;0.00;0.00;;;;;;;;;;1739413;28;20276;-73
2022/12/22 05:34:31;;;;;;;0.00;0.00;;;;;;;;;;1739710;28;20840;-73
2022/12/22 05:35:22;;;;;;;0.00;0.00;;;;;;;;;;1739758;28;20203;-73
2022/12/22 05:36:14;;;;;;;0.00;0.00;;;;;;;;;;1739884;28;20272;-74
2022/12/22 05:37:05;;;;;;;0.00;0.00;;;;;;;;;;1739581;28;20264;-74
2022/12/22 05:37:57;;;;;;;0.00;0.00;;;;;;;;;;1739974;28;20431;-74
2022/12/22 05:38:48;;;;;;;0.10;0.10;;;;;;;;;;1737704;28;20368;-75
2022/12/22 05:39:40;;;;;;;0.00;0.00;;;;;;;;;;1740100;28;20612;-74
2022/12/22 05:40:31;;;;;;;0.00;0.00;;;;;;;;;;1738576;28;20211;-74
2022/12/22 05:41:23;;;;;;;0.00;0.00;;;;;;;;;;1737313;28;20241;-74
2022/12/22 05:42:34;;;;;;;0.00;0.00;;;;;;;;;;1735601;28;20203;-73
2022/12/22 05:43:26;;;;;;;0.00;0.00;;;;;;;;;;1738367;28;20206;-73
2022/12/22 05:44:17;;;;;;;0.00;0.00;;;;;;;;;;1740743;28;20203;-74
2022/12/22 05:45:12;;;;;;;0.00;0.00;;;;;;;;;;1740807;28;20861;-74
2022/12/22 05:46:04;;;;;;;0.00;0.00;;;;;;;;;;1740101;28;20264;-73
2022/12/22 05:46:55;;;;;;;0.00;0.00;;;;;;;;;;1739395;28;20207;-73
2022/12/22 05:47:50;;;;;;;0.00;0.00;;;;;;;;;;1739783;28;20621;-73
2022/12/22 05:48:41;;;;;;;0.00;0.00;;;;;;;;;;1739396;28;20268;-73
2022/12/22 05:49:33;;;;;;;0.00;0.00;;;;;;;;;;1739852;28;20668;-73
2022/12/22 05:50:24;;;;;;;0.00;0.00;;;;;;;;;;1739598;28;20260;-73
2022/12/22 05:51:16;;;;;;;0.00;0.00;;;;;;;;;;1739968;28;20202;-75
2022/12/22 05:52:07;;;;;;;0.00;0.00;;;;;;;;;;1739778;28;20249;-75
2022/12/22 05:53:00;;;;;;;0.00;0.00;;;;;;;;;;1739912;28;20722;-75
2022/12/22 05:53:51;;;;;;;0.00;0.00;;;;;;;;;;1739411;28;20211;-75
2022/12/22 05:54:43;;;;;;;0.00;0.00;;;;;;;;;;1739333;28;20670;-74
2022/12/22 05:55:34;;;;;;;0.00;0.00;;;;;;;;;;1735845;28;20241;-74
2022/12/22 05:56:26;;;;;;;0.00;0.00;;;;;;;;;;1739648;28;20199;-74
2022/12/22 05:57:17;;;;;;;0.00;0.00;;;;;;;;;;1739628;28;20749;-75
2022/12/22 05:58:09;;;;;;;0.00;0.00;;;;;;;;;;1739811;28;20221;-74
2022/12/22 05:59:00;;;;;;;0.00;0.00;;;;;;;;;;1739347;28;20299;-75
2022/12/22 05:59:52;;;;;;;0.00;0.00;;;;;;;;;;1739386;28;20215;-75
2022/12/22 06:00:43;;;;;;;0.00;0.00;;;;;;;;;;1740266;28;20299;-75
2022/12/22 06:01:35;;;;;;;0.00;0.00;;;;;;;;;;1739445;28;20679;-74
2022/12/22 06:02:26;;;;;;;0.00;0.00;;;;;;;;;;1737478;28;20248;-73
2022/12/22 06:03:19;;;;;;;0.00;0.00;;;;;;;;;;1734504;28;20207;-73
2022/12/22 06:04:10;;;;;;;0.00;0.00;;;;;;;;;;1737082;28;20291;-73
2022/12/22 06:05:03;;;;;;;0.00;0.00;;;;;;;;;;1739571;28;20202;-73
2022/12/22 06:05:55;;;;;;;0.00;0.00;;;;;;;;;;1739490;28;20705;-73
2022/12/22 06:06:47;;;;;;;0.00;0.00;;;;;;;;;;1739428;28;20206;-73
2022/12/22 06:07:38;;;;;;;0.00;0.00;;;;;;;;;;1739874;28;20595;-73
2022/12/22 06:08:30;;;;;;;0.00;0.00;;;;;;;;;;1739005;28;20227;-73
2022/12/22 06:09:21;;;;;;;0.00;0.00;;;;;;;;;;1739596;28;20199;-73
2022/12/22 06:10:13;;;;;;;0.03;0.03;;;;;;;;;;1739408;28;20203;-73
2022/12/22 06:11:05;;;;;;;0.00;0.00;;;;;;;;;;1739643;28;20260;-73
2022/12/22 06:11:56;;;;;;;0.00;0.00;;;;;;;;;;1739430;28;20268;-73
2022/12/22 06:12:47;;;;;;;0.00;0.00;;;;;;;;;;1739604;28;20210;-73
2022/12/22 06:13:39;;;;;;;0.00;0.00;;;;;;;;;;1739136;28;20264;-73
2022/12/22 06:14:30;;;;;;;0.00;0.00;;;;;;;;;;1739756;28;20707;-73
2022/12/22 06:15:22;;;;;;;0.00;0.00;;;;;;;;;;1739639;28;20203;-73
2022/12/22 06:16:13;;;;;;;0.00;0.00;;;;;;;;;;1739617;28;20272;-73
2022/12/22 06:17:06;;;;;;;0.00;0.00;;;;;;;;;;1739597;28;20237;-74
2022/12/22 06:17:57;;;;;;;0.00;0.00;;;;;;;;;;1739704;28;20270;-74
2022/12/22 06:18:50;;;;;;;0.00;0.00;;;;;;;;;;1739071;28;20493;-73
2022/12/22 06:19:41;;;;;;;0.00;0.00;;;;;;;;;;1739660;28;20206;-73
2022/12/22 06:20:33;;;;;;;0.00;0.00;;;;;;;;;;1739589;28;20207;-73
2022/12/22 06:21:24;;;;;;;0.00;0.00;;;;;;;;;;1737097;28;20858;-74
2022/12/22 06:22:16;;;;;;;0.00;0.00;;;;;;;;;;1737132;28;20203;-74
2022/12/22 06:23:07;;;;;;;0.00;0.00;;;;;;;;;;1734250;28;20264;-75
2022/12/22 06:23:59;;;;;;;0.00;0.00;;;;;;;;;;1739244;28;20246;-75
2022/12/22 06:24:50;;;;;;;0.00;0.00;;;;;;;;;;1739002;28;20686;-75
2022/12/22 06:25:42;;;;;;;0.00;0.00;;;;;;;;;;1739829;28;20202;-75
2022/12/22 06:26:33;;;;;;;0.00;0.00;;;;;;;;;;1739298;28;20203;-74
2022/12/22 06:27:25;;;;;;;0.00;0.00;;;;;;;;;;1739503;28;20264;-75
2022/12/22 06:28:16;;;;;;;0.00;0.00;;;;;;;;;;1738988;28;20250;-75
2022/12/22 06:29:08;;;;;;;0.00;0.00;;;;;;;;;;1737323;28;20210;-75
2022/12/22 06:29:59;;;;;;;0.00;0.00;;;;;;;;;;1739206;28;20573;-75
2022/12/22 06:30:51;;;;;;;0.00;0.00;;;;;;;;;;1740090;28;20293;-75
2022/12/22 06:31:42;;;;;;;0.00;0.00;;;;;;;;;;1738986;28;20722;-75
2022/12/22 06:32:36;;;;;;;0.00;0.00;;;;;;;;;;1739518;28;20202;-75
2022/12/22 06:33:27;;;;;;;0.00;0.00;;;;;;;;;;1738987;28;20217;-75
2022/12/22 06:34:21;;;;;;;0.00;0.00;;;;;;;;;;1739614;28;20206;-75
2022/12/22 06:35:12;;;;;;;0.00;0.00;;;;;;;;;;1739111;28;20246;-75
2022/12/22 06:36:04;;;;;;;0.00;0.00;;;;;;;;;;1739852;28;20206;-75
2022/12/22 06:36:56;;;;;;;0.00;0.00;;;;;;;;;;1739324;28;20692;-75
2022/12/22 06:37:48;;;;;;;0.00;0.00;;;;;;;;;;1739461;28;20199;-75
2022/12/22 06:38:39;;;;;;;0.00;0.00;;;;;;;;;;1738783;28;20579;-75
2022/12/22 06:39:31;;;;;;;0.00;0.00;;;;;;;;;;1739367;28;20227;-75
2022/12/22 06:40:22;;;;;;;0.00;0.00;;;;;;;;;;1739417;28;20203;-75
2022/12/22 06:41:13;;;;;;;0.00;0.00;;;;;;;;;;1739610;28;20524;-75
2022/12/22 06:43:14;;;;;;;0.00;0.00;;;;;;;;;;1732739;28;20654;-75
2022/12/22 06:44:05;;;;;;;0.00;0.00;;;;;;;;;;1739614;28;20202;-75
2022/12/22 06:44:57;;;;;;;0.00;0.00;;;;;;;;;;1739141;28;20246;-75
2022/12/22 06:45:48;;;;;;;0.00;0.00;;;;;;;;;;1739634;28;20290;-74
2022/12/22 06:46:40;;;;;;;0.00;0.00;;;;;;;;;;1739102;28;20667;-74
2022/12/22 06:47:31;;;;;;;0.00;0.00;;;;;;;;;;1739268;28;20219;-75
2022/12/22 06:48:23;;;;;;;0.00;0.00;;;;;;;;;;1739090;28;20199;-75
2022/12/22 06:49:14;;;;;;;0.00;0.00;;;;;;;;;;1739664;28;20207;-75
2022/12/22 06:50:09;;;;;;;0.00;0.00;;;;;;;;;;1739582;28;20234;-75
2022/12/22 06:51:00;;;;;;;0.00;0.00;;;;;;;;;;1739539;28;20508;-75
2022/12/22 06:51:52;;;;;;;0.00;0.00;;;;;;;;;;1739002;28;20599;-75
2022/12/22 06:52:43;;;;;;;0.00;0.00;;;;;;;;;;1739419;28;20207;-75
2022/12/22 06:53:35;;;;;;;0.00;0.00;;;;;;;;;;1738893;28;20199;-75
2022/12/22 06:54:26;;;;;;;0.00;0.00;;;;;;;;;;1739402;28;20206;-75
2022/12/22 06:55:18;;;;;;;0.00;0.00;;;;;;;;;;1739475;28;20766;-75
2022/12/22 06:56:09;;;;;;;0.00;0.00;;;;;;;;;;1739874;28;20396;-75
2022/12/22 06:57:01;;;;;;;0.00;0.00;;;;;;;;;;1739003;28;20206;-75
2022/12/22 06:57:52;;;;;;;0.00;0.00;;;;;;;;;;1739596;28;20333;-75
2022/12/22 06:58:44;;;;;;;0.00;0.00;;;;;;;;;;1738630;28;20203;-75
2022/12/22 06:59:35;;;;;;;0.00;0.00;;;;;;;;;;1739518;28;20278;-75
2022/12/22 07:00:27;;;;;;;0.00;0.00;;;;;;;;;;1738692;28;20260;-75
2022/12/22 07:01:18;;;;;;;0.00;0.00;;;;;;;;;;1739255;28;20205;-75
2022/12/22 07:02:10;;;;;;;0.00;0.00;;;;;;;;;;1739098;28;20210;-75
2022/12/22 07:03:01;;;;;;;0.00;0.00;;;;;;;;;;1739688;28;20486;-75
2022/12/22 07:03:53;;;;;;;0.00;0.00;;;;;;;;;;1739137;28;20280;-75
2022/12/22 07:04:44;;;;;;;0.00;0.00;;;;;;;;;;1738350;28;20244;-74
2022/12/22 07:05:38;;;;;;;0.00;0.00;;;;;;;;;;1737803;28;20237;-75
2022/12/22 07:06:29;;;;;;;0.00;0.00;;;;;;;;;;1739013;28;20256;-74
2022/12/22 07:07:21;;;;;;;0.00;0.00;;;;;;;;;;1739377;28;20452;-74
2022/12/22 07:08:12;;;;;;;0.00;0.00;;;;;;;;;;1738798;28;20211;-74
2022/12/22 07:09:04;;;;;;;0.00;0.00;;;;;;;;;;1738766;28;20203;-74
2022/12/22 07:09:55;;;;;;;0.00;0.00;;;;;;;;;;1738330;28;20299;-74
2022/12/22 07:10:59;;;;;;;0.00;0.00;;;;;;;;;;1738958;28;20722;-74
2022/12/22 07:11:50;;;;;;;0.00;0.00;;;;;;;;;;1738420;28;20277;-73
2022/12/22 07:12:42;;;;;;;0.00;0.00;;;;;;;;;;1738679;28;20206;-73
2022/12/22 07:13:34;;;;;;;0.00;0.00;;;;;;;;;;1738335;28;20518;-74
2022/12/22 07:14:26;;;;;;;0.00;0.00;;;;;;;;;;1738731;28;20199;-74
2022/12/22 07:15:17;;;;;;;0.00;0.00;;;;;;;;;;1738382;28;20210;-74
2022/12/22 07:16:10;;;;;;;0.00;0.00;;;;;;;;;;1739183;28;20198;-74
2022/12/22 07:17:01;;;;;;;0.00;0.00;;;;;;;;;;1738108;28;20272;-74
2022/12/22 07:17:53;;;;;;;0.00;0.00;;;;;;;;;;1738943;28;20211;-74
2022/12/22 07:18:44;;;;;;;0.00;0.00;;;;;;;;;;1738288;28;20283;-74
2022/12/22 07:19:36;;;;;;;0.00;0.00;;;;;;;;;;1738735;28;20223;-74
2022/12/22 07:20:27;;;;;;;0.00;0.00;;;;;;;;;;1738792;28;20993;-74
2022/12/22 07:21:21;;;;;;;0.00;0.00;;;;;;;;;;1738536;28;21304;-74
2022/12/22 07:22:12;;;;;;;0.00;0.00;;;;;;;;;;1734425;28;20211;-74
2022/12/22 07:23:04;;;;;;;0.00;0.00;;;;;;;;;;1738743;28;20222;-74
2022/12/22 07:23:55;;;;;;;0.00;0.00;;;;;;;;;;1738351;28;20207;-74
2022/12/22 07:24:47;;;;;;;0.00;0.00;;;;;;;;;;1738406;28;20207;-74
2022/12/22 07:25:38;;;;;;;0.00;0.00;;;;;;;;;;1738580;28;20253;-74
2022/12/22 07:26:30;;;;;;;0.00;0.00;;;;;;;;;;1738261;28;20214;-75
2022/12/22 07:27:21;;;;;;;0.00;0.00;;;;;;;;;;1738331;28;20217;-75
2022/12/22 07:28:13;;;;;;;0.00;0.00;;;;;;;;;;1738246;28;20203;-74
2022/12/22 07:29:04;;;;;;;0.00;0.00;;;;;;;;;;1738658;28;20211;-75
2022/12/22 07:29:56;;;;;;;0.00;0.00;;;;;;;;;;1738137;28;20211;-74
2022/12/22 07:30:47;;;;;;;0.00;0.00;;;;;;;;;;1738980;28;20207;-74
2022/12/22 07:31:39;;;;;;;0.00;0.00;;;;;;;;;;1737948;28;20318;-74
2022/12/22 07:32:30;;;;;;;0.00;0.00;;;;;;;;;;1738610;28;20244;-74
2022/12/22 07:33:22;;;;;;;0.00;0.00;;;;;;;;;;1737824;28;20872;-73
2022/12/22 07:34:13;;;;;;;0.00;0.00;;;;;;;;;;1738509;28;20279;-73
2022/12/22 07:35:06;;;;;;;0.00;0.00;;;;;;;;;;1738658;28;20245;-73
2022/12/22 07:36:04;;;;;;;0.00;0.00;;;;;;;;;;1738421;28;20610;-73
2022/12/22 07:36:58;;;;;;;0.00;0.00;;;;;;;;;;1738225;28;20279;-73
2022/12/22 07:37:49;;;;;;;0.00;0.00;;;;;;;;;;1738533;28;20334;-73
2022/12/22 07:38:42;;;;;;;0.00;0.00;;;;;;;;;;1737788;28;20207;-73
2022/12/22 07:39:33;;;;;;;0.00;0.00;;;;;;;;;;1738491;28;20621;-73
2022/12/22 07:40:25;;;;;;;0.00;0.00;;;;;;;;;;1738502;28;20678;-74
2022/12/22 07:42:44;;;;;;;0.00;0.00;;;;;;;;;;1738612;28;20292;-73
2022/12/22 07:43:36;;;;;;;0.00;0.00;;;;;;;;;;1736195;28;20199;-73
2022/12/22 07:44:27;;;;;;;0.00;0.00;;;;;;;;;;1738252;28;20526;-73
2022/12/22 07:45:20;;;;;;;0.00;0.00;;;;;;;;;;1738392;28;20261;-73
2022/12/22 07:46:11;;;;;;;0.00;0.00;;;;;;;;;;1738580;28;20279;-75
2022/12/22 07:47:03;;;;;;;0.00;0.00;;;;;;;;;;1738460;28;20210;-74
2022/12/22 07:47:58;;;;;;;0.00;0.00;;;;;;;;;;1738513;28;20636;-75
2022/12/22 07:51:09;;;;;;;0.00;0.00;;;;;;;;;;1738919;28;20194;-74
2022/12/22 07:52:02;;;;;;;0.00;0.00;;;;;;;;;;1737854;28;20214;-75
2022/12/22 07:52:54;;;;;;;0.00;0.00;;;;;;;;;;1738578;28;20227;-74
2022/12/22 07:53:46;;;;;;;0.00;0.00;;;;;;;;;;1738014;28;20640;-74
2022/12/22 07:54:37;;;;;;;0.00;0.00;;;;;;;;;;1738430;28;20210;-75
2022/12/22 07:55:31;;;;;;;0.00;0.00;;;;;;;;;;1738272;28;20199;-75
2022/12/22 07:56:22;;;;;;;0.00;0.00;;;;;;;;;;1738173;28;20210;-75
2022/12/22 07:57:14;;;;;;;0.00;0.00;;;;;;;;;;1738124;28;20206;-74
2022/12/22 07:58:05;;;;;;;0.00;0.00;;;;;;;;;;1738881;28;20207;-75
2022/12/22 07:58:57;;;;;;;0.00;0.00;;;;;;;;;;1737061;28;20627;-74
2022/12/22 07:59:48;;;;;;;0.00;0.00;;;;;;;;;;1738427;28;20234;-74
2022/12/22 08:00:40;;;;;;;0.00;0.00;;;;;;;;;;1738608;28;20644;-75
2022/12/22 08:01:31;;;;;;;0.00;0.00;;;;;;;;;;1738165;28;20482;-73
2022/12/22 08:02:23;;;;;;;0.03;0.03;;;;;;;;;;1738247;28;20264;-73
2022/12/22 08:03:14;;;;;;;0.00;0.00;;;;;;;;;;1737836;28;20740;-73
2022/12/22 08:04:06;;;;;;;0.00;0.00;;;;;;;;;;1741739;28;20630;-73
2022/12/22 08:04:57;;;;;;;0.00;0.00;;;;;;;;;;1739250;28;20309;-73
2022/12/22 08:05:49;;;;;;;0.00;0.00;;;;;;;;;;1738423;28;20527;-73
2022/12/22 08:06:40;;;;;;;0.00;0.00;;;;;;;;;;1739402;28;20210;-74
2022/12/22 08:07:34;;;;;;;0.00;0.00;;;;;;;;;;1739915;28;20344;-74
2022/12/22 08:08:25;;;;;;;0.00;0.00;;;;;;;;;;1739311;28;20263;-74
2022/12/22 08:09:20;;;;;;;0.03;0.03;;;;;;;;;;1741162;28;20207;-74
2022/12/22 08:10:12;;;;;;;0.00;0.00;;;;;;;;;;1740231;28;20620;-74
2022/12/22 08:11:04;;;;;;;0.00;0.00;;;;;;;;;;1739361;28;20206;-75
2022/12/22 08:11:56;;;;;;;0.00;0.00;;;;;;;;;;1739442;28;20214;-74
2022/12/22 08:12:47;;;;;;;0.00;0.00;;;;;;;;;;1739840;28;20211;-74
2022/12/22 08:13:39;;;;;;;0.00;0.00;;;;;;;;;;1739290;28;20207;-74
2022/12/22 08:14:30;;;;;;;0.00;0.00;;;;;;;;;;1735445;28;20582;-75
2022/12/22 08:15:22;;;;;;;0.00;0.00;;;;;;;;;;1739654;28;20238;-74
2022/12/22 08:16:13;;;;;;;0.00;0.00;;;;;;;;;;1739824;28;20211;-74
2022/12/22 08:17:05;;;;;;;0.00;0.00;;;;;;;;;;1739565;28;20199;-74
2022/12/22 08:17:56;;;;;;;0.00;0.00;;;;;;;;;;1739781;28;20219;-73
2022/12/22 08:18:49;;;;;;;0.00;0.00;;;;;;;;;;1739419;28;20203;-73
2022/12/22 08:19:40;;;;;;;0.00;0.00;;;;;;;;;;1739603;28;20715;-73
2022/12/22 08:20:32;;;;;;;0.00;0.00;;;;;;;;;;1739758;28;20198;-73
2022/12/22 08:21:23;;;;;;;0.00;0.00;;;;;;;;;;1739602;28;20210;-73
2022/12/22 08:22:15;;;;;;;0.00;0.00;;;;;;;;;;1735675;28;20203;-73
2022/12/22 08:23:07;;;;;;;0.00;0.00;;;;;;;;;;1739828;28;20272;-73
2022/12/22 08:23:59;;;;;;;0.00;0.00;;;;;;;;;;1739419;28;20218;-73
2022/12/22 08:24:50;;;;;;;0.00;0.00;;;;;;;;;;1739396;28;20272;-73
2022/12/22 08:25:42;;;;;;;0.00;0.00;;;;;;;;;;1739671;28;20252;-73
2022/12/22 08:26:36;;;;;;;0.00;0.00;;;;;;;;;;1738209;28;21019;-73
2022/12/22 08:27:30;;;;;;;0.00;0.00;;;;;;;;;;1733096;28;20701;-73
2022/12/22 08:28:22;;;;;;;0.00;0.00;;;;;;;;;;1732957;28;20203;-73
2022/12/22 08:29:14;;;;;;;0.00;0.00;;;;;;;;;;1739963;28;20407;-73
2022/12/22 08:30:06;;;;;;;0.00;0.00;;;;;;;;;;1739919;28;20300;-73
2022/12/22 08:30:59;;;;;;;0.00;0.00;;;;;;;;;;1739909;28;20552;-74
2022/12/22 08:31:51;;;;;;;0.00;0.00;;;;;;;;;;1739197;28;20211;-75
2022/12/22 08:32:43;;;;;;;0.00;0.00;;;;;;;;;;1739458;28;20211;-75
2022/12/22 08:33:35;;;;;;;0.00;0.00;;;;;;;;;;1737434;28;20268;-75
2022/12/22 08:34:26;;;;;;;0.00;0.00;;;;;;;;;;1735467;28;20208;-74
2022/12/22 08:35:18;;;;;;;0.00;0.00;;;;;;;;;;1739728;28;20276;-74
2022/12/22 08:36:10;;;;;;;0.00;0.00;;;;;;;;;;1739827;28;20215;-75
2022/12/22 08:37:03;;;;;;;0.00;0.00;;;;;;;;;;1739163;28;20215;-75
2022/12/22 08:37:54;;;;;;;0.00;0.00;;;;;;;;;;1739629;28;20284;-75
2022/12/22 08:38:47;;;;;;;0.00;0.00;;;;;;;;;;1738715;28;20207;-75
2022/12/22 08:39:41;;;;;;;0.00;0.00;;;;;;;;;;1739724;28;20207;-75
2022/12/22 08:40:32;;;;;;;0.00;0.00;;;;;;;;;;1739583;28;20234;-75
2022/12/22 08:42:30;;;;;;;0.00;0.00;;;;;;;;;;1736789;28;20217;-73
2022/12/22 08:43:23;;;;;;;0.00;0.00;;;;;;;;;;1738339;28;20556;-73
2022/12/22 08:44:16;;;;;;;0.00;0.00;;;;;;;;;;1737928;28;20453;-73
2022/12/22 08:45:10;;;;;;;0.00;0.00;;;;;;;;;;1736681;28;20250;-74
2022/12/22 08:46:02;;;;;;;0.00;0.00;;;;;;;;;;1740222;28;20264;-73
2022/12/22 08:46:53;;;;;;;0.00;0.00;;;;;;;;;;1739605;28;20218;-73
2022/12/22 08:47:45;;;;;;;0.00;0.00;;;;;;;;;;1740287;28;20213;-73
2022/12/22 08:48:36;;;;;;;0.00;0.00;;;;;;;;;;1739545;28;20585;-74
2022/12/22 08:49:28;;;;;;;0.00;0.00;;;;;;;;;;1740267;28;20600;-73
2022/12/22 08:50:19;;;;;;;0.00;0.00;;;;;;;;;;1740080;28;20207;-73
2022/12/22 08:51:11;;;;;;;0.00;0.00;;;;;;;;;;1740491;28;20604;-73